createdAt,value
2022-08-12T00:02:04.337Z,22.14
2022-08-12T00:04:51.179Z,22.18
2022-08-12T00:07:36.352Z,22.14
2022-08-12T00:10:23.303Z,22.10
2022-08-12T00:13:08.015Z,22.12
2022-08-12T00:15:55.034Z,22.07
2022-08-12T00:18:40.269Z,22.02
2022-08-12T00:21:25.607Z,21.99
2022-08-12T00:24:12.835Z,21.97
2022-08-12T00:26:59.706Z,21.99
2022-08-12T00:29:47.977Z,21.94
2022-08-12T00:32:36.083Z,22.00
2022-08-12T00:35:36.425Z,22.04
2022-08-12T00:38:23.455Z,22.01
2022-08-12T00:41:08.831Z,22.01
2022-08-12T00:43:36.172Z,22.02
2022-08-12T00:46:22.088Z,22.02
2022-08-12T00:48:50.090Z,21.91
2022-08-12T00:51:17.212Z,21.95
2022-08-12T00:53:43.832Z,21.84
2022-08-12T00:56:10.828Z,21.85
2022-08-12T00:58:46.228Z,21.92
2022-08-12T01:01:15.462Z,21.78
2022-08-12T01:04:04.322Z,21.80
2022-08-12T01:06:53.769Z,21.72
2022-08-12T01:09:40.884Z,21.58
2022-08-12T01:12:10.807Z,21.53
2022-08-12T01:14:37.627Z,21.48
2022-08-12T01:17:04.559Z,21.50
2022-08-12T01:19:31.301Z,21.53
2022-08-12T01:22:18.607Z,21.59
2022-08-12T01:24:54.601Z,21.64
2022-08-12T01:27:23.398Z,21.63
2022-08-12T01:29:53.952Z,21.54
2022-08-12T01:32:22.454Z,21.43
2022-08-12T01:35:02.941Z,21.34
2022-08-12T01:37:30.945Z,21.20
2022-08-12T01:40:35.109Z,21.21
2022-08-12T01:42:51.882Z,21.19
2022-08-12T01:45:24.357Z,21.11
2022-08-12T01:48:09.851Z,21.00
2022-08-12T01:50:43.001Z,20.89
2022-08-12T01:53:15.847Z,20.93
2022-08-12T01:55:45.220Z,20.89
2022-08-12T01:58:20.804Z,20.86
2022-08-12T02:00:59.276Z,20.78
2022-08-12T02:04:19.803Z,20.67
2022-08-12T02:07:40.626Z,20.54
2022-08-12T02:10:50.058Z,20.57
2022-08-12T02:13:48.983Z,20.45
2022-08-12T02:16:22.767Z,20.27
2022-08-12T02:19:02.059Z,20.26
2022-08-12T02:21:51.640Z,20.24
2022-08-12T02:24:22.054Z,20.21
2022-08-12T02:26:54.196Z,20.15
2022-08-12T02:29:20.791Z,20.10
2022-08-12T02:31:48.957Z,20.09
2022-08-12T02:34:17.626Z,20.03
2022-08-12T02:36:45.175Z,20.05
2022-08-12T02:39:18.308Z,20.04
2022-08-12T02:41:50.692Z,20.04
2022-08-12T02:44:19.500Z,19.97
2022-08-12T02:46:50.374Z,20.01
2022-08-12T02:49:29.534Z,19.95
2022-08-12T02:51:56.583Z,19.88
2022-08-12T02:54:24.908Z,19.77
2022-08-12T02:56:52.163Z,19.64
2022-08-12T02:59:23.114Z,19.56
2022-08-12T03:01:54.977Z,19.60
2022-08-12T03:04:32.859Z,19.60
2022-08-12T03:07:09.156Z,19.59
2022-08-12T03:10:03.630Z,19.58
2022-08-12T03:12:35.688Z,19.63
2022-08-12T03:15:12.487Z,19.60
2022-08-12T03:17:43.552Z,19.68
2022-08-12T03:20:18.275Z,19.52
2022-08-12T03:22:46.134Z,19.45
2022-08-12T03:25:16.408Z,19.39
2022-08-12T03:27:49.648Z,19.27
2022-08-12T03:30:18.324Z,19.25
2022-08-12T03:32:50.650Z,19.44
2022-08-12T03:35:40.580Z,19.38
2022-08-12T03:38:12.050Z,19.45
2022-08-12T03:41:18.000Z,19.42
2022-08-12T03:44:25.800Z,19.29
2022-08-12T03:47:48.652Z,19.05
2022-08-12T03:50:34.931Z,18.85
2022-08-12T03:53:22.397Z,18.83
2022-08-12T03:56:07.306Z,18.77
2022-08-12T03:58:52.535Z,18.84
2022-08-12T04:01:23.023Z,18.87
2022-08-12T04:03:52.895Z,18.86
2022-08-12T04:06:34.430Z,18.90
2022-08-12T04:09:05.244Z,18.86
2022-08-12T04:12:00.796Z,18.71
2022-08-12T04:14:28.189Z,18.77
2022-08-12T04:16:57.049Z,18.72
2022-08-12T04:19:25.102Z,18.63
2022-08-12T04:22:02.082Z,18.63
2022-08-12T04:24:31.920Z,18.58
2022-08-12T04:26:58.472Z,18.58
2022-08-12T04:30:30.892Z,18.61
2022-08-12T04:32:13.805Z,18.63
2022-08-12T04:34:41.762Z,18.62
2022-08-12T04:37:08.273Z,18.65
2022-08-12T04:39:35.209Z,18.70
2022-08-12T04:42:01.757Z,18.55
2022-08-12T04:44:28.430Z,18.59
2022-08-12T04:46:55.898Z,18.60
2022-08-12T04:49:24.223Z,18.53
2022-08-12T04:51:53.450Z,18.56
2022-08-12T04:54:25.986Z,18.74
2022-08-12T04:57:03.269Z,18.71
2022-08-12T04:59:48.315Z,18.70
2022-08-12T05:02:21.695Z,18.65
2022-08-12T05:04:51.810Z,18.62
2022-08-12T05:07:19.532Z,18.66
2022-08-12T05:09:59.190Z,18.55
2022-08-12T05:12:43.067Z,18.52
2022-08-12T05:15:27.580Z,18.57
2022-08-12T05:17:56.267Z,18.44
2022-08-12T05:20:26.891Z,18.52
2022-08-12T05:23:11.848Z,18.52
2022-08-12T05:25:40.827Z,18.62
2022-08-12T05:28:07.330Z,18.67
2022-08-12T05:30:34.451Z,18.64
2022-08-12T05:33:05.868Z,18.65
2022-08-12T05:35:43.058Z,18.72
2022-08-12T05:38:30.487Z,18.77
2022-08-12T05:40:57.083Z,18.73
2022-08-12T05:43:24.795Z,18.83
2022-08-12T05:45:51.409Z,18.88
2022-08-12T05:48:17.972Z,18.94
2022-08-12T05:50:45.897Z,19.02
2022-08-12T05:53:13.394Z,19.10
2022-08-12T05:55:40.602Z,19.14
2022-08-12T05:58:08.130Z,19.21
2022-08-12T06:00:35.664Z,19.30
2022-08-12T06:03:03.807Z,19.37
2022-08-12T06:05:34.422Z,19.41
2022-08-12T06:08:19.223Z,19.48
2022-08-12T06:10:46.076Z,19.52
2022-08-12T06:13:15.089Z,19.55
2022-08-12T06:15:55.678Z,19.59
2022-08-12T06:18:25.382Z,19.64
2022-08-12T06:20:59.077Z,19.71
2022-08-12T06:23:28.975Z,19.76
2022-08-12T06:25:56.251Z,19.82
2022-08-12T06:28:22.922Z,19.86
2022-08-12T06:31:14.940Z,19.90
2022-08-12T06:33:57.837Z,19.94
2022-08-12T06:36:29.321Z,19.99
2022-08-12T06:38:57.042Z,20.03
2022-08-12T06:42:28.515Z,20.08
2022-08-12T06:44:29.774Z,20.14
2022-08-12T06:46:56.921Z,20.18
2022-08-12T06:49:25.077Z,20.22
2022-08-12T06:51:56.356Z,20.26
2022-08-12T06:54:30.865Z,20.31
2022-08-12T06:57:57.327Z,20.36
2022-08-12T06:59:44.834Z,20.41
2022-08-12T07:02:11.300Z,20.44
2022-08-12T07:04:39.171Z,20.47
2022-08-12T07:07:10.353Z,20.51
2022-08-12T07:10:00.109Z,20.55
2022-08-12T07:12:28.437Z,20.58
2022-08-12T07:14:56.054Z,20.65
2022-08-12T07:17:22.619Z,20.76
2022-08-12T07:19:51.862Z,20.81
2022-08-12T07:22:19.142Z,20.84
2022-08-12T07:25:05.834Z,20.87
2022-08-12T07:27:40.792Z,20.93
2022-08-12T07:30:08.472Z,20.99
2022-08-12T07:32:35.007Z,21.05
2022-08-12T07:35:02.192Z,21.09
2022-08-12T07:37:28.888Z,21.14
2022-08-12T07:39:59.584Z,21.32
2022-08-12T07:42:27.942Z,21.34
2022-08-12T07:44:54.949Z,21.34
2022-08-12T07:47:21.532Z,21.33
2022-08-12T07:50:04.775Z,21.35
2022-08-12T07:52:34.535Z,21.55
2022-08-12T07:55:01.648Z,21.68
2022-08-12T07:57:28.190Z,21.80
2022-08-12T07:59:55.584Z,21.79
2022-08-12T08:02:27.139Z,21.81
2022-08-12T08:04:57.301Z,21.79
2022-08-12T08:07:30.613Z,21.80
2022-08-12T08:10:02.198Z,21.88
2022-08-12T08:12:48.502Z,22.07
2022-08-12T08:15:16.578Z,22.22
2022-08-12T08:17:59.519Z,22.21
2022-08-12T08:20:30.495Z,22.29
2022-08-12T08:22:58.702Z,22.27
2022-08-12T08:25:36.165Z,22.25
2022-08-12T08:28:08.390Z,22.25
2022-08-12T08:30:38.305Z,22.32
2022-08-12T08:33:22.800Z,22.39
2022-08-12T08:35:54.217Z,22.51
2022-08-12T08:38:31.907Z,22.51
2022-08-12T08:42:19.114Z,22.62
2022-08-12T08:44:06.320Z,22.65
2022-08-12T08:46:37.385Z,22.62
2022-08-12T08:49:05.231Z,22.57
2022-08-12T08:51:31.895Z,22.57
2022-08-12T08:53:58.490Z,22.66
2022-08-12T08:56:25.357Z,22.77
2022-08-12T08:58:52.169Z,22.81
2022-08-12T09:01:21.412Z,22.86
2022-08-12T09:05:09.770Z,22.81
2022-08-12T09:09:23.986Z,23.03
2022-08-12T09:12:12.123Z,23.16
2022-08-12T09:14:47.063Z,23.16
2022-08-12T09:17:20.934Z,23.19
2022-08-12T09:22:35.977Z,23.14
2022-08-12T09:25:06.236Z,23.07
2022-08-12T09:30:41.623Z,23.15
2022-08-12T09:33:18.291Z,23.21
2022-08-12T09:36:04.510Z,23.32
2022-08-12T09:38:33.414Z,23.31
2022-08-12T09:42:09.995Z,23.50
2022-08-12T09:44:38.486Z,23.57
2022-08-12T09:46:54.407Z,23.67
2022-08-12T09:49:24.918Z,23.67
2022-08-12T09:51:55.228Z,23.60
2022-08-12T09:54:33.934Z,23.48
2022-08-12T09:58:46.524Z,23.67
2022-08-12T10:00:12.767Z,23.72
2022-08-12T10:03:06.631Z,23.68
2022-08-12T10:06:20.402Z,23.95
2022-08-12T10:08:30.346Z,24.19
2022-08-12T10:11:20.061Z,24.57
2022-08-12T10:13:48.723Z,24.42
2022-08-12T10:16:18.541Z,24.28
2022-08-12T10:18:57.156Z,24.16
2022-08-12T10:21:35.490Z,24.47
2022-08-12T10:24:08.372Z,24.66
2022-08-12T10:26:55.411Z,24.61
2022-08-12T10:30:37.150Z,24.48
2022-08-12T10:32:44.009Z,24.31
2022-08-12T10:35:14.519Z,24.25
2022-08-12T10:38:35.506Z,24.25
2022-08-12T10:40:33.480Z,24.16
2022-08-12T10:43:20.296Z,24.33
2022-08-12T10:45:49.555Z,24.62
2022-08-12T10:48:33.650Z,24.81
2022-08-12T10:51:56.473Z,24.86
2022-08-12T10:53:54.250Z,24.74
2022-08-12T10:56:27.633Z,24.66
2022-08-12T10:59:01.591Z,24.61
2022-08-12T11:04:20.367Z,24.63
2022-08-12T11:04:27.373Z,24.59
2022-08-12T11:07:05.149Z,24.72
2022-08-12T11:09:59.862Z,24.85
2022-08-12T11:12:55.657Z,24.93
2022-08-12T11:15:20.878Z,24.93
2022-08-12T11:17:52.373Z,25.28
2022-08-12T11:20:20.871Z,25.42
2022-08-12T11:23:03.892Z,25.46
2022-08-12T11:25:55.460Z,25.28
2022-08-12T11:28:17.790Z,25.25
2022-08-12T11:31:01.453Z,25.13
2022-08-12T11:34:06.569Z,25.16
2022-08-12T11:36:14.701Z,25.25
2022-08-12T11:38:41.495Z,25.47
2022-08-12T11:41:09.412Z,25.62
2022-08-12T11:43:50.610Z,25.70
2022-08-12T11:46:22.626Z,25.71
2022-08-12T11:48:52.379Z,25.55
2022-08-12T11:51:20.682Z,25.50
2022-08-12T11:53:56.582Z,25.40
2022-08-12T11:56:38.196Z,25.41
2022-08-12T12:02:00.874Z,25.81
2022-08-12T12:04:32.008Z,26.04
2022-08-12T12:07:07.325Z,25.91
2022-08-12T12:09:51.999Z,25.67
2022-08-12T12:12:19.756Z,25.86
2022-08-12T12:14:54.820Z,26.12
2022-08-12T12:17:26.203Z,26.53
2022-08-12T12:20:09.816Z,26.72
2022-08-12T12:22:41.177Z,27.00
2022-08-12T12:25:12.917Z,27.19
2022-08-12T12:28:04.118Z,27.43
2022-08-12T12:30:32.503Z,27.71
2022-08-12T12:32:59.407Z,27.97
2022-08-12T12:36:06.383Z,28.24
2022-08-12T12:38:14.688Z,28.59
2022-08-12T12:40:44.808Z,28.84
2022-08-12T12:43:15.411Z,29.26
2022-08-12T12:45:44.661Z,29.55
2022-08-12T12:48:15.475Z,29.69
2022-08-12T12:50:45.580Z,29.74
2022-08-12T12:54:05.282Z,30.01
2022-08-12T12:56:13.221Z,30.09
2022-08-12T12:58:40.169Z,30.20
2022-08-12T13:01:25.437Z,30.25
2022-08-12T13:03:56.287Z,30.42
2022-08-12T13:06:30.157Z,30.46
2022-08-12T13:09:02.782Z,30.59
2022-08-12T13:11:40.762Z,30.70
2022-08-12T13:14:12.684Z,30.66
2022-08-12T13:16:55.222Z,30.61
2022-08-12T13:19:36.647Z,30.70
2022-08-12T13:22:23.531Z,30.87
2022-08-12T13:24:55.592Z,30.89
2022-08-12T13:27:36.358Z,30.93
2022-08-12T13:30:13.011Z,31.09
2022-08-12T13:32:42.570Z,31.11
2022-08-12T13:35:19.888Z,31.08
2022-08-12T13:37:58.018Z,30.95
2022-08-12T13:40:28.708Z,30.90
2022-08-12T13:42:58.904Z,30.74
2022-08-12T13:45:26.975Z,30.72
2022-08-12T13:48:04.443Z,30.81
2022-08-12T13:50:39.534Z,30.82
2022-08-12T13:53:24.281Z,30.70
2022-08-12T13:56:01.970Z,30.59
2022-08-12T13:58:30.148Z,30.52
2022-08-12T14:00:58.045Z,30.50
2022-08-12T14:03:28.406Z,30.49
2022-08-12T14:06:15.557Z,30.52
2022-08-12T14:08:42.858Z,30.36
2022-08-12T14:11:09.659Z,30.17
2022-08-12T14:14:05.272Z,29.99
2022-08-12T14:16:37.707Z,29.90
2022-08-12T14:19:22.920Z,29.91
2022-08-12T14:22:01.347Z,29.76
2022-08-12T14:24:40.490Z,29.62
2022-08-12T14:27:10.479Z,29.57
2022-08-12T14:30:04.730Z,29.68
2022-08-12T14:32:34.301Z,29.76
2022-08-12T14:35:01.268Z,29.80
2022-08-12T14:37:56.713Z,29.68
2022-08-12T14:40:18.559Z,29.49
2022-08-12T14:42:52.447Z,29.37
2022-08-12T14:45:23.044Z,29.30
2022-08-12T14:47:53.566Z,29.32
2022-08-12T14:50:58.761Z,29.24
2022-08-12T14:55:38.529Z,29.13
2022-08-12T14:59:23.301Z,29.15
2022-08-12T15:01:52.030Z,29.18
2022-08-12T15:04:24.574Z,29.18
2022-08-12T15:06:53.088Z,29.12
2022-08-12T15:09:29.029Z,29.12
2022-08-12T15:12:04.043Z,29.14
2022-08-12T15:14:31.789Z,29.21
2022-08-12T15:16:59.939Z,29.17
2022-08-12T15:20:10.761Z,29.32
2022-08-12T15:22:39.647Z,29.41
2022-08-12T15:25:03.597Z,29.34
2022-08-12T15:28:05.053Z,29.41
2022-08-12T15:30:23.018Z,29.41
2022-08-12T15:32:50.990Z,29.39
2022-08-12T15:35:17.650Z,29.33
2022-08-12T15:38:09.141Z,29.35
2022-08-12T15:40:33.269Z,29.35
2022-08-12T15:43:08.107Z,29.39
2022-08-12T15:45:37.999Z,29.42
2022-08-12T15:48:17.026Z,29.39
2022-08-12T15:50:47.302Z,29.41
2022-08-12T15:53:39.392Z,29.48
2022-08-12T15:56:12.527Z,29.53
2022-08-12T15:58:41.355Z,29.54
2022-08-12T16:01:15.106Z,29.58
2022-08-12T16:04:00.487Z,29.57
2022-08-12T16:06:58.940Z,29.58
2022-08-12T16:09:21.611Z,29.62
2022-08-12T16:11:48.792Z,29.65
2022-08-12T16:14:16.175Z,29.71
2022-08-12T16:16:43.032Z,29.79
2022-08-12T16:20:02.272Z,29.82
2022-08-12T16:21:58.379Z,29.84
2022-08-12T16:24:25.833Z,29.91
2022-08-12T16:26:55.376Z,29.96
2022-08-12T16:29:52.137Z,30.04
2022-08-12T16:32:19.317Z,30.04
2022-08-12T16:34:54.880Z,30.07
2022-08-12T16:37:23.011Z,30.04
2022-08-12T16:40:05.009Z,30.04
2022-08-12T16:42:39.039Z,30.13
2022-08-12T16:45:14.887Z,30.15
2022-08-12T16:47:57.381Z,30.15
2022-08-12T16:50:30.627Z,30.21
2022-08-12T16:52:59.775Z,30.18
2022-08-12T16:55:35.073Z,30.17
2022-08-12T16:58:25.571Z,30.17
2022-08-12T17:00:58.564Z,30.13
2022-08-12T17:03:30.591Z,30.13
2022-08-12T17:05:57.232Z,30.16
2022-08-12T17:08:29.233Z,30.15
2022-08-12T17:10:56.308Z,30.16
2022-08-12T17:13:24.071Z,30.14
2022-08-12T17:16:05.533Z,30.09
2022-08-12T17:18:42.741Z,30.13
2022-08-12T17:21:15.210Z,30.08
2022-08-12T17:23:53.971Z,29.99
2022-08-12T17:26:22.892Z,29.95
2022-08-12T17:28:56.085Z,29.88
2022-08-12T17:32:00.589Z,29.80
2022-08-12T17:34:28.996Z,29.73
2022-08-12T17:36:58.684Z,29.67
2022-08-12T17:40:12.041Z,29.54
2022-08-12T17:42:32.330Z,29.51
2022-08-12T17:45:01.558Z,29.47
2022-08-12T17:47:36.333Z,29.38
2022-08-12T17:50:08.466Z,29.34
2022-08-12T17:52:39.411Z,29.28
2022-08-12T17:55:20.104Z,29.19
2022-08-12T17:57:57.171Z,29.12
2022-08-12T18:00:28.215Z,29.07
2022-08-12T18:02:58.023Z,28.99
2022-08-12T18:05:25.739Z,28.93
2022-08-12T18:08:12.652Z,28.87
2022-08-12T18:10:58.210Z,28.77
2022-08-12T18:13:40.636Z,28.68
2022-08-12T18:16:13.156Z,28.58
2022-08-12T18:18:41.937Z,28.51
2022-08-12T18:21:08.636Z,28.42
2022-08-12T18:23:46.742Z,28.33
2022-08-12T18:26:25.495Z,28.26
2022-08-12T18:28:54.520Z,28.17
2022-08-12T18:31:43.954Z,28.09
2022-08-12T18:34:12.143Z,28.03
2022-08-12T18:36:39.339Z,27.96
2022-08-12T18:39:19.483Z,27.89
2022-08-12T18:41:47.175Z,27.82
2022-08-12T18:44:14.004Z,27.71
2022-08-12T18:46:47.196Z,27.65
2022-08-12T18:49:20.657Z,27.57
2022-08-12T18:52:02.435Z,27.52
2022-08-12T18:54:41.275Z,27.47
2022-08-12T18:57:45.592Z,27.42
2022-08-12T19:00:07.562Z,27.34
2022-08-12T19:02:39.860Z,27.29
2022-08-12T19:05:09.834Z,27.24
2022-08-12T19:07:49.650Z,27.18
2022-08-12T19:10:27.793Z,27.10
2022-08-12T19:13:23.483Z,27.03
2022-08-12T19:15:53.529Z,26.94
2022-08-12T19:18:22.100Z,26.88
2022-08-12T19:20:50.566Z,26.82
2022-08-12T19:23:21.444Z,26.76
2022-08-12T19:26:01.062Z,26.69
2022-08-12T19:28:35.741Z,26.67
2022-08-12T19:33:03.080Z,26.59
2022-08-12T19:36:07.689Z,26.55
2022-08-12T19:38:19.516Z,26.47
2022-08-12T19:40:47.851Z,26.41
2022-08-12T19:43:21.736Z,26.35
2022-08-12T19:45:53.048Z,26.29
2022-08-12T19:48:22.501Z,26.23
2022-08-12T19:50:52.376Z,26.16
2022-08-12T19:53:22.969Z,26.10
2022-08-12T19:55:52.748Z,26.04
2022-08-12T19:58:21.054Z,25.96
2022-08-12T20:00:53.303Z,25.90
2022-08-12T20:03:39.905Z,25.81
2022-08-12T20:06:16.045Z,25.76
2022-08-12T20:08:56.047Z,25.65
2022-08-12T20:12:09.953Z,25.58
2022-08-12T20:14:19.027Z,25.47
2022-08-12T20:16:51.708Z,25.43
2022-08-12T20:19:23.512Z,25.34
2022-08-12T20:21:50.528Z,25.23
2022-08-12T20:24:17.018Z,25.11
2022-08-12T20:26:46.679Z,25.05
2022-08-12T20:29:15.047Z,24.98
2022-08-12T20:31:43.738Z,24.88
2022-08-12T20:34:12.343Z,24.81
2022-08-12T20:36:44.619Z,24.72
2022-08-12T20:39:37.356Z,24.65
2022-08-12T20:42:07.120Z,24.55
2022-08-12T20:44:39.836Z,24.43
2022-08-12T20:47:18.110Z,24.46
2022-08-12T20:49:46.387Z,24.38
2022-08-12T20:52:22.538Z,24.32
2022-08-12T20:54:50.960Z,24.16
2022-08-12T20:57:19.403Z,24.12
2022-08-12T20:59:47.940Z,24.03
2022-08-12T21:02:18.793Z,23.98
2022-08-12T21:05:15.936Z,23.91
2022-08-12T21:07:51.579Z,23.86
2022-08-12T21:10:18.416Z,23.69
2022-08-12T21:12:47.990Z,23.71
2022-08-12T21:15:23.168Z,23.65
2022-08-12T21:18:11.170Z,23.64
2022-08-12T21:20:52.439Z,23.63
2022-08-12T21:23:21.464Z,23.58
2022-08-12T21:25:51.252Z,23.58
2022-08-12T21:28:20.539Z,23.52
2022-08-12T21:31:10.837Z,23.38
2022-08-12T21:33:58.515Z,23.15
2022-08-12T21:36:34.955Z,23.15
2022-08-12T21:39:18.646Z,23.11
2022-08-12T21:41:51.125Z,22.95
2022-08-12T21:44:24.150Z,22.88
2022-08-12T21:47:21.211Z,22.82
2022-08-12T21:50:02.312Z,22.75
2022-08-12T21:52:34.465Z,22.80
2022-08-12T21:55:17.863Z,22.90
2022-08-12T21:57:53.108Z,23.00
2022-08-12T22:00:21.862Z,23.01
2022-08-12T22:03:07.775Z,22.99
2022-08-12T22:05:53.528Z,22.96
2022-08-12T22:08:22.284Z,22.90
2022-08-12T22:10:52.617Z,22.88
2022-08-12T22:14:02.171Z,22.90
2022-08-12T22:16:12.281Z,22.96
2022-08-12T22:18:41.379Z,22.95
2022-08-12T22:21:11.544Z,22.99
2022-08-12T22:23:52.092Z,23.01
2022-08-12T22:26:29.444Z,23.03
2022-08-12T22:29:26.799Z,23.03
2022-08-12T22:31:55.300Z,23.06
2022-08-12T22:34:27.299Z,23.11
2022-08-12T22:36:57.330Z,23.13
2022-08-12T22:39:24.045Z,23.11
2022-08-12T22:42:11.821Z,23.13
2022-08-12T22:44:57.386Z,23.11
2022-08-12T22:47:53.218Z,23.10
2022-08-12T22:50:28.763Z,23.08
2022-08-12T22:53:15.999Z,23.11
2022-08-12T22:55:59.269Z,23.09
2022-08-12T22:58:33.578Z,23.08
2022-08-12T23:01:02.163Z,23.10
2022-08-12T23:03:47.721Z,23.09
2022-08-12T23:06:24.238Z,23.10
2022-08-12T23:08:52.197Z,23.11
2022-08-12T23:11:23.224Z,23.15
2022-08-12T23:13:55.091Z,23.16
2022-08-12T23:16:31.655Z,23.16
2022-08-12T23:19:18.000Z,23.15
2022-08-12T23:22:06.224Z,23.18
2022-08-12T23:24:55.583Z,23.18
2022-08-12T23:27:50.311Z,23.17
2022-08-12T23:30:25.214Z,23.12
2022-08-12T23:32:59.755Z,23.12
2022-08-12T23:35:46.090Z,23.08
2022-08-12T23:38:30.924Z,23.03
2022-08-12T23:41:00.633Z,23.03
2022-08-12T23:43:39.207Z,22.99
2022-08-12T23:46:09.093Z,22.94
2022-08-12T23:48:37.507Z,22.94
2022-08-12T23:51:22.230Z,22.90
2022-08-12T23:54:00.230Z,22.87
2022-08-12T23:56:28.563Z,22.89
2022-08-12T23:58:57.703Z,22.86
